Terminal Aerodrome Forecast
Issued by NWS La Crosse, WI

Home | Current Version | Previous Version | Text Only | Print | Product List | Glossary On
Versions: 1 2 3 4 5 6 7 8 9 10 11 12 13
000
FTUS43 KARX 231720
TAFLSE
TAF
KLSE 231720Z 2318/2418 27006KT P6SM FEW250
     FM232100 24006KT P6SM SCT250
     FM232300 VRB03KT P6SM BKN200
     FM241700 17012G23KT P6SM BKN200=

USA.gov is the U.S. government's official web portal to all federal, state and local government web resources and services.